sensor_id;sensor_type;location;lat;lon;timestamp;P1;durP1;ratioP1;P2;durP2;ratioP2
21281;SDS011;10800;53.096;18.328;2023-03-01T00:03:42;29.83;;;11.77;;
21281;SDS011;10800;53.096;18.328;2023-03-01T00:08:48;26.90;;;13.47;;
21281;SDS011;10800;53.096;18.328;2023-03-01T00:13:55;28.27;;;12.20;;
21281;SDS011;10800;53.096;18.328;2023-03-01T00:19:01;32.90;;;12.63;;
21281;SDS011;10800;53.096;18.328;2023-03-01T00:24:07;19.63;;;9.70;;
21281;SDS011;10800;53.096;18.328;2023-03-01T00:29:13;16.37;;;8.93;;
21281;SDS011;10800;53.096;18.328;2023-03-01T00:34:19;21.53;;;9.67;;
21281;SDS011;10800;53.096;18.328;2023-03-01T00:39:24;23.13;;;8.60;;
21281;SDS011;10800;53.096;18.328;2023-03-01T00:44:29;21.33;;;7.70;;
21281;SDS011;10800;53.096;18.328;2023-03-01T00:49:35;25.83;;;9.07;;
21281;SDS011;10800;53.096;18.328;2023-03-01T00:54:40;14.63;;;6.90;;
21281;SDS011;10800;53.096;18.328;2023-03-01T00:59:45;21.47;;;9.87;;
21281;SDS011;10800;53.096;18.328;2023-03-01T01:04:51;24.20;;;10.47;;
21281;SDS011;10800;53.096;18.328;2023-03-01T01:09:56;10.80;;;5.77;;
21281;SDS011;10800;53.096;18.328;2023-03-01T01:15:01;17.70;;;9.47;;
21281;SDS011;10800;53.096;18.328;2023-03-01T01:20:07;26.23;;;9.73;;
21281;SDS011;10800;53.096;18.328;2023-03-01T01:25:13;19.30;;;6.80;;
21281;SDS011;10800;53.096;18.328;2023-03-01T01:30:18;22.17;;;8.53;;
21281;SDS011;10800;53.096;18.328;2023-03-01T01:35:23;30.13;;;10.40;;
21281;SDS011;10800;53.096;18.328;2023-03-01T01:40:29;19.13;;;8.37;;
21281;SDS011;10800;53.096;18.328;2023-03-01T01:45:34;25.07;;;9.37;;
21281;SDS011;10800;53.096;18.328;2023-03-01T01:50:41;33.03;;;9.00;;
21281;SDS011;10800;53.096;18.328;2023-03-01T01:55:50;27.17;;;9.93;;
21281;SDS011;10800;53.096;18.328;2023-03-01T02:00:57;34.93;;;10.83;;
21281;SDS011;10800;53.096;18.328;2023-03-01T02:06:10;25.67;;;9.73;;
21281;SDS011;10800;53.096;18.328;2023-03-01T02:11:12;15.67;;;7.87;;
21281;SDS011;10800;53.096;18.328;2023-03-01T02:16:18;11.73;;;7.20;;
21281;SDS011;10800;53.096;18.328;2023-03-01T02:26:53;10.43;;;6.67;;
21281;SDS011;10800;53.096;18.328;2023-03-01T02:31:56;20.50;;;9.10;;
21281;SDS011;10800;53.096;18.328;2023-03-01T02:37:07;10.70;;;7.00;;
21281;SDS011;10800;53.096;18.328;2023-03-01T02:42:21;30.57;;;7.97;;
21281;SDS011;10800;53.096;18.328;2023-03-01T02:47:24;20.00;;;9.27;;
21281;SDS011;10800;53.096;18.328;2023-03-01T02:52:32;20.43;;;5.90;;
21281;SDS011;10800;53.096;18.328;2023-03-01T02:57:45;12.10;;;6.67;;
21281;SDS011;10800;53.096;18.328;2023-03-01T03:02:54;18.23;;;7.70;;
21281;SDS011;10800;53.096;18.328;2023-03-01T03:08:01;20.17;;;8.67;;
21281;SDS011;10800;53.096;18.328;2023-03-01T03:13:13;26.10;;;9.03;;
21281;SDS011;10800;53.096;18.328;2023-03-01T03:18:16;19.80;;;8.50;;
21281;SDS011;10800;53.096;18.328;2023-03-01T03:23:22;32.33;;;10.60;;
21281;SDS011;10800;53.096;18.328;2023-03-01T03:28:28;14.57;;;5.37;;
21281;SDS011;10800;53.096;18.328;2023-03-01T03:33:34;12.53;;;6.13;;
21281;SDS011;10800;53.096;18.328;2023-03-01T03:38:40;13.20;;;6.80;;
21281;SDS011;10800;53.096;18.328;2023-03-01T03:43:45;22.27;;;7.60;;
21281;SDS011;10800;53.096;18.328;2023-03-01T03:48:52;9.77;;;5.07;;
21281;SDS011;10800;53.096;18.328;2023-03-01T03:53:59;18.80;;;8.47;;
21281;SDS011;10800;53.096;18.328;2023-03-01T03:59:04;20.17;;;7.97;;
21281;SDS011;10800;53.096;18.328;2023-03-01T04:04:10;13.83;;;7.80;;
21281;SDS011;10800;53.096;18.328;2023-03-01T04:09:15;10.93;;;8.03;;
21281;SDS011;10800;53.096;18.328;2023-03-01T04:14:21;17.27;;;9.20;;
21281;SDS011;10800;53.096;18.328;2023-03-01T04:19:26;20.97;;;9.23;;
21281;SDS011;10800;53.096;18.328;2023-03-01T04:24:31;14.47;;;7.30;;
21281;SDS011;10800;53.096;18.328;2023-03-01T04:29:37;30.97;;;7.40;;
21281;SDS011;10800;53.096;18.328;2023-03-01T04:34:42;23.67;;;8.17;;
21281;SDS011;10800;53.096;18.328;2023-03-01T04:39:48;22.63;;;9.73;;
21281;SDS011;10800;53.096;18.328;2023-03-01T04:44:53;10.23;;;5.83;;
21281;SDS011;10800;53.096;18.328;2023-03-01T04:49:58;11.43;;;7.10;;
21281;SDS011;10800;53.096;18.328;2023-03-01T04:55:07;8.27;;;5.80;;
21281;SDS011;10800;53.096;18.328;2023-03-01T05:00:13;17.30;;;5.33;;
21281;SDS011;10800;53.096;18.328;2023-03-01T05:10:34;15.20;;;6.13;;
21281;SDS011;10800;53.096;18.328;2023-03-01T05:15:42;13.27;;;4.70;;
21281;SDS011;10800;53.096;18.328;2023-03-01T05:20:47;7.80;;;5.27;;
21281;SDS011;10800;53.096;18.328;2023-03-01T05:25:52;9.37;;;5.80;;
21281;SDS011;10800;53.096;18.328;2023-03-01T05:30:58;6.90;;;5.30;;
21281;SDS011;10800;53.096;18.328;2023-03-01T05:36:05;15.90;;;8.00;;
21281;SDS011;10800;53.096;18.328;2023-03-01T05:41:13;16.13;;;9.03;;
21281;SDS011;10800;53.096;18.328;2023-03-01T05:46:20;47.87;;;7.50;;
21281;SDS011;10800;53.096;18.328;2023-03-01T05:51:28;19.60;;;6.70;;
21281;SDS011;10800;53.096;18.328;2023-03-01T05:56:34;14.23;;;7.77;;
21281;SDS011;10800;53.096;18.328;2023-03-01T06:01:40;17.60;;;8.57;;
21281;SDS011;10800;53.096;18.328;2023-03-01T06:06:45;22.37;;;7.97;;
21281;SDS011;10800;53.096;18.328;2023-03-01T06:11:51;17.33;;;9.27;;
21281;SDS011;10800;53.096;18.328;2023-03-01T06:16:57;17.30;;;9.10;;
21281;SDS011;10800;53.096;18.328;2023-03-01T06:22:02;14.80;;;8.53;;
21281;SDS011;10800;53.096;18.328;2023-03-01T06:27:09;14.10;;;7.63;;
21281;SDS011;10800;53.096;18.328;2023-03-01T06:32:14;27.73;;;10.40;;
21281;SDS011;10800;53.096;18.328;2023-03-01T06:37:20;16.07;;;7.30;;
21281;SDS011;10800;53.096;18.328;2023-03-01T06:42:25;18.47;;;9.27;;
21281;SDS011;10800;53.096;18.328;2023-03-01T06:47:30;27.27;;;10.63;;
21281;SDS011;10800;53.096;18.328;2023-03-01T06:52:36;25.57;;;8.90;;
21281;SDS011;10800;53.096;18.328;2023-03-01T06:57:42;37.10;;;11.63;;
21281;SDS011;10800;53.096;18.328;2023-03-01T07:02:48;16.97;;;7.97;;
21281;SDS011;10800;53.096;18.328;2023-03-01T07:07:53;29.60;;;11.83;;
21281;SDS011;10800;53.096;18.328;2023-03-01T07:13:00;16.93;;;9.13;;
21281;SDS011;10800;53.096;18.328;2023-03-01T07:18:05;16.37;;;6.63;;
21281;SDS011;10800;53.096;18.328;2023-03-01T07:23:11;12.27;;;6.37;;
21281;SDS011;10800;53.096;18.328;2023-03-01T07:28:16;19.33;;;6.30;;
21281;SDS011;10800;53.096;18.328;2023-03-01T07:33:21;17.57;;;7.47;;
21281;SDS011;10800;53.096;18.328;2023-03-01T07:38:27;14.30;;;6.30;;
21281;SDS011;10800;53.096;18.328;2023-03-01T07:43:33;16.20;;;6.27;;
21281;SDS011;10800;53.096;18.328;2023-03-01T07:48:39;11.00;;;5.20;;
21281;SDS011;10800;53.096;18.328;2023-03-01T07:53:46;15.83;;;5.43;;
21281;SDS011;10800;53.096;18.328;2023-03-01T07:58:53;11.30;;;4.63;;
21281;SDS011;10800;53.096;18.328;2023-03-01T08:03:58;11.07;;;5.73;;
21281;SDS011;10800;53.096;18.328;2023-03-01T08:09:03;9.20;;;4.50;;
21281;SDS011;10800;53.096;18.328;2023-03-01T08:14:09;15.53;;;6.07;;
21281;SDS011;10800;53.096;18.328;2023-03-01T08:19:15;20.33;;;6.10;;
21281;SDS011;10800;53.096;18.328;2023-03-01T08:24:20;12.13;;;5.33;;
21281;SDS011;10800;53.096;18.328;2023-03-01T08:29:26;15.27;;;6.10;;
21281;SDS011;10800;53.096;18.328;2023-03-01T08:34:32;12.97;;;5.33;;
21281;SDS011;10800;53.096;18.328;2023-03-01T08:39:38;12.67;;;5.53;;
21281;SDS011;10800;53.096;18.328;2023-03-01T08:44:44;19.87;;;6.80;;
21281;SDS011;10800;53.096;18.328;2023-03-01T08:49:50;22.93;;;6.73;;
21281;SDS011;10800;53.096;18.328;2023-03-01T08:54:56;19.37;;;7.50;;
21281;SDS011;10800;53.096;18.328;2023-03-01T09:00:02;20.47;;;9.10;;
21281;SDS011;10800;53.096;18.328;2023-03-01T09:05:09;17.90;;;7.57;;
21281;SDS011;10800;53.096;18.328;2023-03-01T09:10:15;25.93;;;11.00;;
21281;SDS011;10800;53.096;18.328;2023-03-01T09:20:36;16.90;;;7.23;;
21281;SDS011;10800;53.096;18.328;2023-03-01T09:25:44;13.17;;;6.33;;
21281;SDS011;10800;53.096;18.328;2023-03-01T09:30:49;18.73;;;6.97;;
21281;SDS011;10800;53.096;18.328;2023-03-01T09:36:00;12.63;;;6.13;;
21281;SDS011;10800;53.096;18.328;2023-03-01T09:46:29;16.97;;;6.73;;
21281;SDS011;10800;53.096;18.328;2023-03-01T09:51:38;20.50;;;8.13;;
21281;SDS011;10800;53.096;18.328;2023-03-01T09:57:05;17.90;;;7.73;;
21281;SDS011;10800;53.096;18.328;2023-03-01T10:02:31;17.47;;;8.27;;
21281;SDS011;10800;53.096;18.328;2023-03-01T10:07:42;21.77;;;8.03;;
21281;SDS011;10800;53.096;18.328;2023-03-01T10:12:50;24.10;;;8.70;;
21281;SDS011;10800;53.096;18.328;2023-03-01T10:18:03;18.77;;;9.10;;
21281;SDS011;10800;53.096;18.328;2023-03-01T10:23:14;16.40;;;7.87;;
21281;SDS011;10800;53.096;18.328;2023-03-01T10:28:31;16.43;;;6.73;;
21281;SDS011;10800;53.096;18.328;2023-03-01T10:33:51;15.43;;;6.63;;
21281;SDS011;10800;53.096;18.328;2023-03-01T10:38:59;15.47;;;6.13;;
21281;SDS011;10800;53.096;18.328;2023-03-01T10:44:09;17.57;;;6.90;;
21281;SDS011;10800;53.096;18.328;2023-03-01T10:49:21;21.07;;;8.23;;
21281;SDS011;10800;53.096;18.328;2023-03-01T10:54:30;18.40;;;6.60;;
21281;SDS011;10800;53.096;18.328;2023-03-01T10:59:38;13.13;;;6.63;;
21281;SDS011;10800;53.096;18.328;2023-03-01T11:05:31;10.70;;;5.77;;
21281;SDS011;10800;53.096;18.328;2023-03-01T11:10:15;19.27;;;5.73;;
21281;SDS011;10800;53.096;18.328;2023-03-01T11:15:25;11.87;;;5.20;;
21281;SDS011;10800;53.096;18.328;2023-03-01T11:20:36;19.60;;;6.17;;
21281;SDS011;10800;53.096;18.328;2023-03-01T11:25:43;15.07;;;5.93;;
21281;SDS011;10800;53.096;18.328;2023-03-01T11:36:07;11.37;;;4.33;;
21281;SDS011;10800;53.096;18.328;2023-03-01T11:41:32;11.70;;;4.93;;
21281;SDS011;10800;53.096;18.328;2023-03-01T11:46:43;14.57;;;4.63;;
21281;SDS011;10800;53.096;18.328;2023-03-01T12:03:16;14.53;;;5.33;;
21281;SDS011;10800;53.096;18.328;2023-03-01T12:08:11;11.37;;;5.10;;
21281;SDS011;10800;53.096;18.328;2023-03-01T12:29:22;13.77;;;4.67;;
21281;SDS011;10800;53.096;18.328;2023-03-01T12:50:41;19.67;;;6.47;;
21281;SDS011;10800;53.096;18.328;2023-03-01T12:55:50;12.43;;;4.53;;
21281;SDS011;10800;53.096;18.328;2023-03-01T13:06:41;8.47;;;4.70;;
21281;SDS011;10800;53.096;18.328;2023-03-01T13:11:50;12.50;;;5.27;;
21281;SDS011;10800;53.096;18.328;2023-03-01T13:16:55;10.87;;;3.97;;
21281;SDS011;10800;53.096;18.328;2023-03-01T13:22:01;22.37;;;6.83;;
21281;SDS011;10800;53.096;18.328;2023-03-01T13:27:09;14.87;;;5.37;;
21281;SDS011;10800;53.096;18.328;2023-03-01T13:32:23;16.17;;;5.23;;
21281;SDS011;10800;53.096;18.328;2023-03-01T13:37:37;13.87;;;4.93;;
21281;SDS011;10800;53.096;18.328;2023-03-01T13:42:43;12.70;;;5.63;;
21281;SDS011;10800;53.096;18.328;2023-03-01T13:47:55;10.37;;;5.00;;
21281;SDS011;10800;53.096;18.328;2023-03-01T13:53:22;14.90;;;4.27;;
21281;SDS011;10800;53.096;18.328;2023-03-01T14:04:22;13.57;;;6.00;;
21281;SDS011;10800;53.096;18.328;2023-03-01T14:09:30;10.03;;;4.30;;
21281;SDS011;10800;53.096;18.328;2023-03-01T14:15:02;21.47;;;7.87;;
21281;SDS011;10800;53.096;18.328;2023-03-01T14:25:29;11.20;;;5.20;;
21281;SDS011;10800;53.096;18.328;2023-03-01T14:30:37;21.77;;;7.27;;
21281;SDS011;10800;53.096;18.328;2023-03-01T14:35:58;12.53;;;4.30;;
21281;SDS011;10800;53.096;18.328;2023-03-01T14:41:14;16.27;;;5.80;;
21281;SDS011;10800;53.096;18.328;2023-03-01T14:46:30;8.43;;;3.63;;
21281;SDS011;10800;53.096;18.328;2023-03-01T14:51:39;13.03;;;5.43;;
21281;SDS011;10800;53.096;18.328;2023-03-01T14:56:54;44.87;;;12.93;;
21281;SDS011;10800;53.096;18.328;2023-03-01T15:02:00;75.73;;;20.57;;
21281;SDS011;10800;53.096;18.328;2023-03-01T15:07:09;43.93;;;11.63;;
21281;SDS011;10800;53.096;18.328;2023-03-01T15:12:33;24.30;;;10.03;;
21281;SDS011;10800;53.096;18.328;2023-03-01T15:17:34;12.70;;;4.93;;
21281;SDS011;10800;53.096;18.328;2023-03-01T15:22:46;12.87;;;5.13;;
21281;SDS011;10800;53.096;18.328;2023-03-01T15:27:51;50.00;;;13.87;;
21281;SDS011;10800;53.096;18.328;2023-03-01T15:33:17;52.03;;;12.93;;
21281;SDS011;10800;53.096;18.328;2023-03-01T15:38:35;31.83;;;10.37;;
21281;SDS011;10800;53.096;18.328;2023-03-01T15:43:46;112.90;;;29.20;;
21281;SDS011;10800;53.096;18.328;2023-03-01T15:48:54;36.40;;;12.20;;
21281;SDS011;10800;53.096;18.328;2023-03-01T15:54:06;10.00;;;4.47;;
21281;SDS011;10800;53.096;18.328;2023-03-01T15:59:09;12.00;;;4.33;;
21281;SDS011;10800;53.096;18.328;2023-03-01T16:04:18;422.33;;;101.27;;
21281;SDS011;10800;53.096;18.328;2023-03-01T16:09:26;200.43;;;56.57;;
21281;SDS011;10800;53.096;18.328;2023-03-01T16:14:31;30.60;;;11.13;;
21281;SDS011;10800;53.096;18.328;2023-03-01T16:19:37;26.17;;;9.23;;
21281;SDS011;10800;53.096;18.328;2023-03-01T16:24:44;32.70;;;11.67;;
21281;SDS011;10800;53.096;18.328;2023-03-01T16:29:49;28.43;;;10.03;;
21281;SDS011;10800;53.096;18.328;2023-03-01T16:34:55;113.17;;;33.03;;
21281;SDS011;10800;53.096;18.328;2023-03-01T16:40:00;66.20;;;21.43;;
21281;SDS011;10800;53.096;18.328;2023-03-01T16:45:08;89.57;;;27.57;;
21281;SDS011;10800;53.096;18.328;2023-03-01T16:50:15;90.37;;;30.40;;
21281;SDS011;10800;53.096;18.328;2023-03-01T16:55:20;64.70;;;19.47;;
21281;SDS011;10800;53.096;18.328;2023-03-01T17:00:26;62.90;;;16.30;;
21281;SDS011;10800;53.096;18.328;2023-03-01T17:05:32;36.77;;;12.83;;
21281;SDS011;10800;53.096;18.328;2023-03-01T17:10:37;32.80;;;14.33;;
21281;SDS011;10800;53.096;18.328;2023-03-01T17:15:42;78.20;;;23.13;;
21281;SDS011;10800;53.096;18.328;2023-03-01T17:20:47;86.70;;;27.13;;
21281;SDS011;10800;53.096;18.328;2023-03-01T17:25:53;88.23;;;26.63;;
21281;SDS011;10800;53.096;18.328;2023-03-01T17:30:59;148.93;;;44.17;;
21281;SDS011;10800;53.096;18.328;2023-03-01T17:36:06;166.60;;;44.67;;
21281;SDS011;10800;53.096;18.328;2023-03-01T17:41:11;110.83;;;29.67;;
21281;SDS011;10800;53.096;18.328;2023-03-01T17:46:18;65.40;;;19.03;;
21281;SDS011;10800;53.096;18.328;2023-03-01T17:51:24;70.67;;;16.67;;
21281;SDS011;10800;53.096;18.328;2023-03-01T17:56:29;41.70;;;10.43;;
21281;SDS011;10800;53.096;18.328;2023-03-01T18:01:36;31.90;;;10.93;;
21281;SDS011;10800;53.096;18.328;2023-03-01T18:06:45;38.53;;;12.10;;
21281;SDS011;10800;53.096;18.328;2023-03-01T18:11:50;40.97;;;11.67;;
21281;SDS011;10800;53.096;18.328;2023-03-01T18:16:56;53.27;;;13.17;;
21281;SDS011;10800;53.096;18.328;2023-03-01T18:22:01;44.30;;;14.63;;
21281;SDS011;10800;53.096;18.328;2023-03-01T18:27:07;73.93;;;19.63;;
21281;SDS011;10800;53.096;18.328;2023-03-01T18:32:13;82.27;;;24.47;;
21281;SDS011;10800;53.096;18.328;2023-03-01T18:37:18;83.07;;;22.83;;
21281;SDS011;10800;53.096;18.328;2023-03-01T18:42:26;122.27;;;28.83;;
21281;SDS011;10800;53.096;18.328;2023-03-01T18:47:31;89.07;;;26.40;;
21281;SDS011;10800;53.096;18.328;2023-03-01T18:52:36;87.50;;;25.47;;
21281;SDS011;10800;53.096;18.328;2023-03-01T18:57:41;96.17;;;29.10;;
21281;SDS011;10800;53.096;18.328;2023-03-01T19:02:47;121.87;;;31.17;;
21281;SDS011;10800;53.096;18.328;2023-03-01T19:07:52;82.63;;;29.07;;
21281;SDS011;10800;53.096;18.328;2023-03-01T19:12:58;76.77;;;29.30;;
21281;SDS011;10800;53.096;18.328;2023-03-01T19:18:03;99.83;;;28.67;;
21281;SDS011;10800;53.096;18.328;2023-03-01T19:23:08;90.10;;;28.37;;
21281;SDS011;10800;53.096;18.328;2023-03-01T19:28:15;82.43;;;28.07;;
21281;SDS011;10800;53.096;18.328;2023-03-01T19:33:20;79.30;;;26.10;;
21281;SDS011;10800;53.096;18.328;2023-03-01T19:38:27;52.60;;;18.07;;
21281;SDS011;10800;53.096;18.328;2023-03-01T19:43:33;35.73;;;14.53;;
21281;SDS011;10800;53.096;18.328;2023-03-01T19:48:39;32.93;;;12.13;;
21281;SDS011;10800;53.096;18.328;2023-03-01T19:53:46;40.70;;;12.33;;
21281;SDS011;10800;53.096;18.328;2023-03-01T19:58:51;37.97;;;11.50;;
21281;SDS011;10800;53.096;18.328;2023-03-01T20:04:02;39.97;;;14.27;;
21281;SDS011;10800;53.096;18.328;2023-03-01T20:09:09;34.47;;;12.93;;
21281;SDS011;10800;53.096;18.328;2023-03-01T20:14:16;39.50;;;13.93;;
21281;SDS011;10800;53.096;18.328;2023-03-01T20:19:23;57.63;;;17.17;;
21281;SDS011;10800;53.096;18.328;2023-03-01T20:24:29;39.73;;;15.47;;
21281;SDS011;10800;53.096;18.328;2023-03-01T20:29:34;44.23;;;15.90;;
21281;SDS011;10800;53.096;18.328;2023-03-01T20:34:40;80.63;;;19.23;;
21281;SDS011;10800;53.096;18.328;2023-03-01T20:39:45;70.50;;;20.13;;
21281;SDS011;10800;53.096;18.328;2023-03-01T20:44:50;76.10;;;21.67;;
21281;SDS011;10800;53.096;18.328;2023-03-01T20:49:55;102.70;;;27.63;;
21281;SDS011;10800;53.096;18.328;2023-03-01T20:55:02;104.53;;;24.60;;
21281;SDS011;10800;53.096;18.328;2023-03-01T21:00:08;64.40;;;22.47;;
21281;SDS011;10800;53.096;18.328;2023-03-01T21:05:13;71.87;;;23.73;;
21281;SDS011;10800;53.096;18.328;2023-03-01T21:10:19;53.80;;;19.83;;
21281;SDS011;10800;53.096;18.328;2023-03-01T21:15:24;71.77;;;15.93;;
21281;SDS011;10800;53.096;18.328;2023-03-01T21:20:31;65.07;;;19.47;;
21281;SDS011;10800;53.096;18.328;2023-03-01T21:25:36;61.23;;;18.57;;
21281;SDS011;10800;53.096;18.328;2023-03-01T21:30:41;69.70;;;19.40;;
21281;SDS011;10800;53.096;18.328;2023-03-01T21:35:47;84.60;;;21.77;;
21281;SDS011;10800;53.096;18.328;2023-03-01T21:40:52;90.07;;;25.10;;
21281;SDS011;10800;53.096;18.328;2023-03-01T21:46:04;63.50;;;20.83;;
21281;SDS011;10800;53.096;18.328;2023-03-01T21:51:13;65.83;;;20.87;;
21281;SDS011;10800;53.096;18.328;2023-03-01T21:56:21;48.20;;;17.57;;
21281;SDS011;10800;53.096;18.328;2023-03-01T22:01:28;81.13;;;28.03;;
21281;SDS011;10800;53.096;18.328;2023-03-01T22:06:35;102.70;;;33.40;;
21281;SDS011;10800;53.096;18.328;2023-03-01T22:11:44;118.43;;;34.87;;
21281;SDS011;10800;53.096;18.328;2023-03-01T22:16:51;102.77;;;29.87;;
21281;SDS011;10800;53.096;18.328;2023-03-01T22:21:57;95.83;;;35.33;;
21281;SDS011;10800;53.096;18.328;2023-03-01T22:27:02;109.40;;;29.07;;
21281;SDS011;10800;53.096;18.328;2023-03-01T22:32:07;116.13;;;32.40;;
21281;SDS011;10800;53.096;18.328;2023-03-01T22:37:13;100.30;;;29.43;;
21281;SDS011;10800;53.096;18.328;2023-03-01T22:42:18;94.93;;;27.07;;
21281;SDS011;10800;53.096;18.328;2023-03-01T22:47:23;120.43;;;35.07;;
21281;SDS011;10800;53.096;18.328;2023-03-01T22:52:29;91.80;;;29.53;;
21281;SDS011;10800;53.096;18.328;2023-03-01T22:57:34;83.73;;;27.23;;
21281;SDS011;10800;53.096;18.328;2023-03-01T23:02:40;72.27;;;23.10;;
21281;SDS011;10800;53.096;18.328;2023-03-01T23:07:46;99.83;;;25.53;;
21281;SDS011;10800;53.096;18.328;2023-03-01T23:12:53;73.77;;;21.80;;
21281;SDS011;10800;53.096;18.328;2023-03-01T23:17:59;43.00;;;16.07;;
21281;SDS011;10800;53.096;18.328;2023-03-01T23:23:05;52.13;;;17.17;;
21281;SDS011;10800;53.096;18.328;2023-03-01T23:28:10;53.33;;;20.17;;
21281;SDS011;10800;53.096;18.328;2023-03-01T23:33:15;45.63;;;18.20;;
21281;SDS011;10800;53.096;18.328;2023-03-01T23:38:20;41.60;;;16.30;;
21281;SDS011;10800;53.096;18.328;2023-03-01T23:43:25;40.47;;;18.00;;
21281;SDS011;10800;53.096;18.328;2023-03-01T23:48:31;63.23;;;16.53;;
21281;SDS011;10800;53.096;18.328;2023-03-01T23:53:39;47.90;;;17.03;;
21281;SDS011;10800;53.096;18.328;2023-03-01T23:58:45;41.40;;;18.13;;
